Observation data for Andrews on 11/18/2019      Previous  Date  Next       Current Mesonet Observations  Soil Data  Daily Summary Page  Observations in Plain Language
KANS 180600Z 23005KT 07/01 A3011 RMK A01 T00650009  RH  068%=      5-min Rain = 0
KANS 180605Z 23005KT 06/01 A3011 RMK A01 T00640008  RH  068%=      5-min Rain = 0
KANS 180610Z 23004KT 06/01 A301 RMK A01 T00630006  RH  068%=      5-min Rain = 0
KANS 180615Z 22003KT 07/01 A301 RMK A01 T00650006  RH  067%=      5-min Rain = 0
KANS 180620Z 22001KT 07/01 A3009 RMK A01 T00660005  RH  066%=      5-min Rain = 0
KANS 180625Z 00000KT 06/00 A3009 RMK A01 T00610004  RH  068%=      5-min Rain = 0
KANS 180630Z 21000KT 06/00 A3009 RMK A01 T00590004  RH  069%=      5-min Rain = 0
KANS 180635Z 20003KT 06/00 A3008 RMK A01 T00570002  RH  068%=      5-min Rain = 0
KANS 180640Z 20005KT 05/00 A3008 RMK A01 T00490000  RH  072%=      5-min Rain = 0
KANS 180645Z 20005KT 05/01 A3008 RMK A01 T00490005  RH  074%=      5-min Rain = 0
KANS 180650Z 22007KT 05/01 A3008 RMK A01 T00510006  RH  074%=      5-min Rain = 0
KANS 180655Z 22005KT 05/01 A3008 RMK A01 T00520009  RH  074%=      5-min Rain = 0
KANS 180700Z 22003KT 05/01 A3007 RMK A01 T00540009  RH  074%=      5-min Rain = 0
KANS 180705Z 22005KT 06/01 A3007 RMK A01 T00550008  RH  073%=      5-min Rain = 0
KANS 180710Z 22005KT 05/01 A3007 RMK A01 T00540009  RH  073%=      5-min Rain = 0
KANS 180715Z 22005KT 06/01 A3007 RMK A01 T00550008  RH  073%=      5-min Rain = 0
KANS 180720Z 22005KT 06/01 A3007 RMK A01 T00550008  RH  073%=      5-min Rain = 0
KANS 180725Z 21005KT 05/01 A3007 RMK A01 T00540008  RH  073%=      5-min Rain = 0
KANS 180730Z 21005KT 05/01 A3006 RMK A01 T00540007  RH  073%=      5-min Rain = 0
KANS 180735Z 21005KT 06/01 A3006 RMK A01 T00550008  RH  072%=      5-min Rain = 0
KANS 180740Z 21005KT 06/01 A3006 RMK A01 T00550008  RH  072%=      5-min Rain = 0
KANS 180745Z 21006KT 06/01 A3006 RMK A01 T00560008  RH  072%=      5-min Rain = 0
KANS 180750Z 21006KT 06/01 A3006 RMK A01 T00580008  RH  071%=      5-min Rain = 0
KANS 180755Z 21005KT 06/01 A3006 RMK A01 T00600009  RH  070%=      5-min Rain = 0
KANS 180800Z 21005KT 06/01 A3006 RMK A01 T00620009  RH  069%=      5-min Rain = 0
KANS 180805Z 21005KT 06/01 A3005 RMK A01 T00630009  RH  069%=      5-min Rain = 0
KANS 180810Z 21005KT 06/01 A3005 RMK A01 T00640009  RH  069%=      5-min Rain = 0
KANS 180815Z 21005KT 06/01 A3005 RMK A01 T00640009  RH  069%=      5-min Rain = 0
KANS 180820Z 21005KT 07/01 A3005 RMK A01 T00660010  RH  068%=      5-min Rain = 0
KANS 180825Z 21005KT 07/01 A3005 RMK A01 T00660010  RH  068%=      5-min Rain = 0
KANS 180830Z 21006KT 07/01 A3005 RMK A01 T00670010  RH  068%=      5-min Rain = 0
KANS 180835Z 21006KT 07/01 A3005 RMK A01 T00690011  RH  068%=      5-min Rain = 0
KANS 180840Z 21005KT 07/01 A3005 RMK A01 T00700012  RH  067%=      5-min Rain = 0
KANS 180845Z 21005KT 07/01 A3005 RMK A01 T00700011  RH  067%=      5-min Rain = 0
KANS 180850Z 21006KT 07/01 A3005 RMK A01 T00690010  RH  067%=      5-min Rain = 0
KANS 180855Z 21006KT 07/01 A3005 RMK A01 T00690010  RH  067%=      5-min Rain = 0
KANS 180900Z 22005KT 07/01 A3005 RMK A01 T00680009  RH  067%=      5-min Rain = 0
KANS 180905Z 22006KT 07/01 A3005 RMK A01 T00660009  RH  068%=      5-min Rain = 0
KANS 180910Z 22006KT 07/01 A3005 RMK A01 T00650009  RH  069%=      5-min Rain = 0
KANS 180915Z 22005KT 06/01 A3005 RMK A01 T00640009  RH  069%=      5-min Rain = 0
KANS 180920Z 22006KT 06/01 A3004 RMK A01 T00610008  RH  069%=      5-min Rain = 0
KANS 180925Z 22006KT 06/01 A3004 RMK A01 T00580007  RH  071%=      5-min Rain = 0
KANS 180930Z 22006KT 06/01 A3004 RMK A01 T00570007  RH  071%=      5-min Rain = 0
KANS 180935Z 21006KT 06/01 A3004 RMK A01 T00570007  RH  071%=      5-min Rain = 0
KANS 180940Z 21006KT 06/01 A3003 RMK A01 T00590009  RH  071%=      5-min Rain = 0
KANS 180945Z 21007KT 06/01 A3003 RMK A01 T00620009  RH  070%=      5-min Rain = 0
KANS 180950Z 22007KT 07/01 A3003 RMK A01 T00650009  RH  068%=      5-min Rain = 0
KANS 180955Z 22007KT 07/01 A3003 RMK A01 T00660009  RH  068%=      5-min Rain = 0
KANS 181000Z 21008KT 07/01 A3002 RMK A01 T00670009  RH  067%=      5-min Rain = 0
KANS 181005Z 22007KT 07/01 A3002 RMK A01 T00670009  RH  067%=      5-min Rain = 0
KANS 181010Z 22007KT 07/01 A3002 RMK A01 T00670008  RH  067%=      5-min Rain = 0
KANS 181015Z 23006KT 07/01 A3003 RMK A01 T00650008  RH  067%=      5-min Rain = 0
KANS 181020Z 23007KT 06/01 A3003 RMK A01 T00630008  RH  069%=      5-min Rain = 0
KANS 181025Z 23006KT 06/01 A3003 RMK A01 T00620008  RH  069%=      5-min Rain = 0
KANS 181030Z 23005KT 06/01 A3003 RMK A01 T00600007  RH  069%=      5-min Rain = 0
KANS 181035Z 23006KT 06/01 A3003 RMK A01 T00580007  RH  070%=      5-min Rain = 0
KANS 181040Z 24006KT 06/01 A3003 RMK A01 T00560006  RH  071%=      5-min Rain = 0
KANS 181045Z 24006KT 05/01 A3003 RMK A01 T00540005  RH  071%=      5-min Rain = 0
KANS 181050Z 24007KT 05/00 A3003 RMK A01 T00520004  RH  072%=      5-min Rain = 0
KANS 181055Z 25006KT 05/00 A3003 RMK A01 T00500003  RH  072%=      5-min Rain = 0
KANS 181100Z 24007KT 05/00 A3003 RMK A01 T00490003  RH  073%=      5-min Rain = 0
KANS 181105Z 24006KT 05/00 A3003 RMK A01 T00490003  RH  073%=      5-min Rain = 0
KANS 181110Z 24007KT 05/00 A3002 RMK A01 T00500003  RH  072%=      5-min Rain = 0
KANS 181115Z 23006KT 05/00 A3002 RMK A01 T00520003  RH  071%=      5-min Rain = 0
KANS 181120Z 23006KT 05/00 A3002 RMK A01 T00530004  RH  071%=      5-min Rain = 0
KANS 181125Z 23006KT 05/00 A3001 RMK A01 T00520003  RH  071%=      5-min Rain = 0
KANS 181130Z 23007KT 05/00 A3001 RMK A01 T00530003  RH  071%=      5-min Rain = 0
KANS 181135Z 24007KT 05/00 A3001 RMK A01 T00540003  RH  071%=      5-min Rain = 0
KANS 181140Z 24007KT 05/00 A3001 RMK A01 T00540003  RH  070%=      5-min Rain = 0
KANS 181145Z 25007KT 05/00 A3001 RMK A01 T00520002  RH  071%=      5-min Rain = 0
KANS 181150Z 24006KT 05/00 A30 RMK A01 T00510002  RH  071%=      5-min Rain = 0
KANS 181155Z 24007KT 05/00 A30 RMK A01 T00520002  RH  071%=      5-min Rain = 0
KANS 181200Z 24007KT 05/00 A30 RMK A01 T00530001  RH  070%=      5-min Rain = 0
KANS 181205Z 24007KT 05/00 A30 RMK A01 T00530001  RH  070%=      5-min Rain = 0
KANS 181210Z 23007KT 05/00 A30 RMK A01 T00530001  RH  070%=      5-min Rain = 0
KANS 181215Z 24006KT 05/00 A30 RMK A01 T00530001  RH  070%=      5-min Rain = 0
KANS 181220Z 24007KT 05/00 A2999 RMK A01 T00540002  RH  070%=      5-min Rain = 0
KANS 181225Z 24007KT 05/00 A30 RMK A01 T00540001  RH  069%=      5-min Rain = 0
KANS 181230Z 24006KT 06/00 A30 RMK A01 T00550001  RH  069%=      5-min Rain = 0
KANS 181235Z 25007KT 06/00 A30 RMK A01 T00560001  RH  069%=      5-min Rain = 0
KANS 181240Z 24006KT 06/00 A30 RMK A01 T00570001  RH  068%=      5-min Rain = 0
KANS 181245Z 24006KT 06/00 A30 RMK A01 T00560001  RH  068%=      5-min Rain = 0
KANS 181250Z 24006KT 06/00 A30 RMK A01 T00550001  RH  069%=      5-min Rain = 0
KANS 181255Z 24007KT 05/00 A30 RMK A01 T00540000  RH  069%=      5-min Rain = 0
KANS 181300Z 23007KT 05/00 A30 RMK A01 T00540000  RH  069%=      5-min Rain = 0
KANS 181305Z 24006KT 05/00 A30 RMK A01 T00540000  RH  069%=      5-min Rain = 0
KANS 181310Z 24006KT 05/00 A30 RMK A01 T005300-0  RH  069%=      5-min Rain = 0
KANS 181315Z 24007KT 05/00 A30 RMK A01 T005300-0  RH  069%=      5-min Rain = 0
KANS 181320Z 24008KT 05/00 A30 RMK A01 T005400-0  RH  069%=      5-min Rain = 0
KANS 181325Z 24007KT 05/00 A30 RMK A01 T005400-0  RH  069%=      5-min Rain = 0
KANS 181330Z 24007KT 05/00 A30 RMK A01 T00540000  RH  069%=      5-min Rain = 0
KANS 181335Z 24007KT 05/00 A30 RMK A01 T00530000  RH  070%=      5-min Rain = 0
KANS 181340Z 24007KT 05/00 A30 RMK A01 T00540001  RH  070%=      5-min Rain = 0
KANS 181345Z 24007KT 06/00 A30 RMK A01 T00570002  RH  069%=      5-min Rain = 0
KANS 181350Z 23007KT 06/00 A30 RMK A01 T00600003  RH  068%=      5-min Rain = 0
KANS 181355Z 23008KT 06/00 A30 RMK A01 T00630003  RH  067%=      5-min Rain = 0
KANS 181400Z 23008KT 07/00 A30 RMK A01 T00650004  RH  066%=      5-min Rain = 0
KANS 181405Z 24007KT 07/01 A30 RMK A01 T00690005  RH  064%=      5-min Rain = 0
KANS 181410Z 24007KT 07/01 A30 RMK A01 T00730005  RH  063%=      5-min Rain = 0
KANS 181415Z 23006KT 08/01 A30 RMK A01 T00770006  RH  062%=      5-min Rain = 0
KANS 181420Z 23007KT 08/01 A30 RMK A01 T00810007  RH  060%=      5-min Rain = 0
KANS 181425Z 23007KT 09/01 A30 RMK A01 T00850008  RH  059%=      5-min Rain = 0
KANS 181430Z 22007KT 09/01 A30 RMK A01 T00900009  RH  057%=      5-min Rain = 0
KANS 181435Z 23006KT 10/01 A30 RMK A01 T00950011  RH  056%=      5-min Rain = 0
KANS 181440Z 23008KT 10/01 A30 RMK A01 T00970011  RH  055%=      5-min Rain = 0
KANS 181445Z 23007KT 10/01 A30 RMK A01 T01000012  RH  055%=      5-min Rain = 0
KANS 181450Z 23009KT 10/01 A30 RMK A01 T01030012  RH  054%=      5-min Rain = 0
KANS 181455Z 23009KT 11/01 A30 RMK A01 T01050012  RH  053%=      5-min Rain = 0
KANS 181500Z 23008KT 11/02 A30 RMK A01 T01080015  RH  053%=      5-min Rain = 0
KANS 181505Z 24008KT 11/02 A30 RMK A01 T01110016  RH  053%=      5-min Rain = 0
KANS 181510Z 24009KT 11/02 A30 RMK A01 T01140016  RH  051%=      5-min Rain = 0
KANS 181515Z 24009KT 12/02 A3001 RMK A01 T01180017  RH  051%=      5-min Rain = 0
KANS 181520Z 23008G13KT 12/02 A3001 RMK A01 T01220018  RH  050%=      5-min Rain = 0
KANS 181525Z 24008KT 13/02 A3001 RMK A01 T01280019  RH  048%=      5-min Rain = 0
KANS 181530Z 24008KT 13/02 A3001 RMK A01 T01330017  RH  046%=      5-min Rain = 0
KANS 181535Z 24010KT 14/02 A3001 RMK A01 T01390016  RH  044%=      5-min Rain = 0
KANS 181540Z 24010KT 15/02 A3001 RMK A01 T01450015  RH  042%=      5-min Rain = 0
KANS 181545Z 24011KT 15/01 A3001 RMK A01 T01500011  RH  039%=      5-min Rain = 0
KANS 181550Z 24012KT 16/00 A3001 RMK A01 T01560000  RH  035%=      5-min Rain = 0
KANS 181555Z 24010G16KT 16/M00 A3001 RMK A01 T01621002  RH  033%=      5-min Rain = 0
KANS 181600Z 24010KT 17/M00 A3001 RMK A01 T01661004  RH  032%=      5-min Rain = 0
KANS 181605Z 25011G16KT 17/M01 A3001 RMK A01 T01691008  RH  030%=      5-min Rain = 0
KANS 181610Z 25011KT 17/M01 A3001 RMK A01 T01711009  RH  030%=      5-min Rain = 0
KANS 181615Z 25010KT 17/M01 A3001 RMK A01 T01741009  RH  029%=      5-min Rain = 0
KANS 181620Z 25010KT 18/M01 A3001 RMK A01 T01761010  RH  029%=      5-min Rain = 0
KANS 181625Z 25010G15KT 18/M01 A3001 RMK A01 T01801011  RH  028%=      5-min Rain = 0
KANS 181630Z 25009KT 18/M01 A3001 RMK A01 T01821013  RH  027%=      5-min Rain = 0
KANS 181635Z 24009KT 19/M01 A3001 RMK A01 T01851012  RH  027%=      5-min Rain = 0
KANS 181640Z 25009KT 19/M02 A3001 RMK A01 T01861015  RH  026%=      5-min Rain = 0
KANS 181645Z 25010G15KT 19/M02 A3001 RMK A01 T01851016  RH  026%=      5-min Rain = 0
KANS 181650Z 26009KT 19/M02 A30 RMK A01 T01871017  RH  025%=      5-min Rain = 0
KANS 181655Z 26009KT 19/M02 A30 RMK A01 T01891017  RH  025%=      5-min Rain = 0
KANS 181700Z 27009KT 19/M02 A30 RMK A01 T01901016  RH  025%=      5-min Rain = 0
KANS 181705Z 27008KT 19/M01 A30 RMK A01 T01941014  RH  025%=      5-min Rain = 0
KANS 181710Z 26008KT 20/M01 A30 RMK A01 T01961013  RH  025%=      5-min Rain = 0
KANS 181715Z 26009KT 20/M01 A30 RMK A01 T01981014  RH  024%=      5-min Rain = 0
KANS 181720Z 26009KT 20/M02 A2999 RMK A01 T02001016  RH  024%=      5-min Rain = 0
KANS 181725Z 27009KT 20/M02 A2999 RMK A01 T02021020  RH  023%=      5-min Rain = 0
KANS 181730Z 26008KT 20/M02 A2999 RMK A01 T02031019  RH  023%=      5-min Rain = 0
KANS 181735Z 27008KT 21/M02 A2999 RMK A01 T02071020  RH  022%=      5-min Rain = 0
KANS 181740Z 27008KT 21/M02 A2998 RMK A01 T02111022  RH  021%=      5-min Rain = 0
KANS 181745Z 25008G13KT 22/M02 A2998 RMK A01 T02151024  RH  020%=      5-min Rain = 0
KANS 181750Z 26009G14KT 22/M03 A2998 RMK A01 T02151027  RH  020%=      5-min Rain = 0
KANS 181755Z 26008KT 22/M03 A2998 RMK A01 T02161029  RH  019%=      5-min Rain = 0
KANS 181800Z 28007KT 22/M03 A2997 RMK A01 T02181028  RH  019%=      5-min Rain = 0
KANS 181805Z 28007KT 22/M03 A2997 RMK A01 T02221029  RH  019%=      5-min Rain = 0
KANS 181810Z 27004KT 22/M03 A2997 RMK A01 T02241028  RH  019%=      5-min Rain = 0
KANS 181815Z 29007KT 23/M03 A2996 RMK A01 T02271030  RH  018%=      5-min Rain = 0
KANS 181820Z 31008KT 23/M03 A2996 RMK A01 T02281031  RH  018%=      5-min Rain = 0
KANS 181825Z 30005G10KT 23/M03 A2996 RMK A01 T02311030  RH  018%=      5-min Rain = 0
KANS 181830Z 30008KT 24/M03 A2996 RMK A01 T02351034  RH  017%=      5-min Rain = 0
KANS 181835Z 30009KT 24/M04 A2995 RMK A01 T02351039  RH  016%=      5-min Rain = 0
KANS 181840Z 30008KT 24/M04 A2995 RMK A01 T02381038  RH  016%=      5-min Rain = 0
KANS 181845Z 31009KT 24/M04 A2995 RMK A01 T02391039  RH  016%=      5-min Rain = 0
KANS 181850Z 32007KT 24/M04 A2995 RMK A01 T02401039  RH  016%=      5-min Rain = 0
KANS 181855Z 31007KT 24/M04 A2994 RMK A01 T02411038  RH  016%=      5-min Rain = 0
KANS 181900Z 29007KT 24/M04 A2994 RMK A01 T02421041  RH  015%=      5-min Rain = 0
KANS 181905Z 30007G12KT 24/M04 A2994 RMK A01 T02441043  RH  015%=      5-min Rain = 0
KANS 181910Z 26007KT 24/M04 A2994 RMK A01 T02441044  RH  015%=      5-min Rain = 0
KANS 181915Z 27005KT 25/M04 A2993 RMK A01 T02461044  RH  014%=      5-min Rain = 0
KANS 181920Z 29004G9KT 25/M04 A2993 RMK A01 T02491044  RH  014%=      5-min Rain = 0
KANS 181925Z 29005KT 25/M04 A2992 RMK A01 T02531044  RH  014%=      5-min Rain = 0
KANS 181930Z 30007G12KT 25/M05 A2992 RMK A01 T02531046  RH  014%=      5-min Rain = 0
KANS 181935Z 30009KT 25/M05 A2992 RMK A01 T02521049  RH  013%=      5-min Rain = 0
KANS 181940Z 28009G14KT 25/M06 A2992 RMK A01 T02531058  RH  012%=      5-min Rain = 0
KANS 181945Z 30009KT 25/M06 A2991 RMK A01 T02531058  RH  012%=      5-min Rain = 0
KANS 181950Z 29010G15KT 25/M06 A2991 RMK A01 T02541058  RH  012%=      5-min Rain = 0
KANS 181955Z 28010KT 25/M06 A2991 RMK A01 T02541058  RH  012%=      5-min Rain = 0
KANS 182000Z 30008G15KT 25/M06 A2991 RMK A01 T02541057  RH  012%=      5-min Rain = 0
KANS 182005Z 29009G15KT 26/M06 A2991 RMK A01 T02551055  RH  013%=      5-min Rain = 0
KANS 182010Z 29010KT 26/M06 A299 RMK A01 T02551055  RH  013%=      5-min Rain = 0
KANS 182015Z 28008KT 26/M06 A299 RMK A01 T02551055  RH  013%=      5-min Rain = 0
KANS 182020Z 30007KT 26/M05 A299 RMK A01 T02571054  RH  012%=      5-min Rain = 0
KANS 182025Z 31007G12KT 26/M05 A299 RMK A01 T02571054  RH  013%=      5-min Rain = 0
KANS 182030Z 30010KT 26/M05 A299 RMK A01 T02561054  RH  013%=      5-min Rain = 0
KANS 182035Z 29006KT 26/M06 A299 RMK A01 T02551055  RH  013%=      5-min Rain = 0
KANS 182040Z 30006KT 26/M05 A299 RMK A01 T02581052  RH  013%=      5-min Rain = 0
KANS 182045Z 30006KT 26/M05 A299 RMK A01 T02581053  RH  013%=      5-min Rain = 0
KANS 182050Z 31006KT 26/M05 A299 RMK A01 T02591051  RH  013%=      5-min Rain = 0
KANS 182055Z 30008KT 26/M05 A2989 RMK A01 T02581053  RH  013%=      5-min Rain = 0
KANS 182100Z 30007KT 26/M05 A2989 RMK A01 T02571052  RH  013%=      5-min Rain = 0
KANS 182105Z 29007KT 26/M05 A2989 RMK A01 T02581053  RH  013%=      5-min Rain = 0
KANS 182110Z 31007KT 26/M05 A2989 RMK A01 T02571053  RH  013%=      5-min Rain = 0
KANS 182115Z 31006KT 26/M05 A2989 RMK A01 T02561053  RH  013%=      5-min Rain = 0
KANS 182120Z 30005KT 26/M05 A2989 RMK A01 T02571052  RH  013%=      5-min Rain = 0
KANS 182125Z 28004KT 26/M05 A2989 RMK A01 T02571052  RH  013%=      5-min Rain = 0
KANS 182130Z 31005KT 26/M05 A2989 RMK A01 T02581050  RH  013%=      5-min Rain = 0
KANS 182135Z 30006KT 26/M05 A2989 RMK A01 T02591049  RH  013%=      5-min Rain = 0
KANS 182140Z 30006KT 26/M05 A2989 RMK A01 T02571051  RH  013%=      5-min Rain = 0
KANS 182145Z 32006KT 26/M05 A2989 RMK A01 T02581050  RH  013%=      5-min Rain = 0
KANS 182150Z 31004KT 26/M05 A2989 RMK A01 T02571051  RH  013%=      5-min Rain = 0
KANS 182155Z 28005KT 26/M05 A2989 RMK A01 T02581052  RH  013%=      5-min Rain = 0
KANS 182200Z 30004KT 26/M05 A299 RMK A01 T02591052  RH  013%=      5-min Rain = 0
KANS 182205Z 32005G11KT 26/M05 A299 RMK A01 T02591050  RH  013%=      5-min Rain = 0
KANS 182210Z 33007KT 26/M05 A299 RMK A01 T02571051  RH  013%=      5-min Rain = 0
KANS 182215Z 32006KT 26/M05 A299 RMK A01 T02561052  RH  013%=      5-min Rain = 0
KANS 182220Z 31004KT 26/M05 A299 RMK A01 T02561053  RH  013%=      5-min Rain = 0
KANS 182225Z 32005KT 26/M05 A299 RMK A01 T02561054  RH  013%=      5-min Rain = 0
KANS 182230Z 30006KT 26/M06 A299 RMK A01 T02561055  RH  013%=      5-min Rain = 0
KANS 182235Z 32006KT 25/M06 A299 RMK A01 T02541058  RH  012%=      5-min Rain = 0
KANS 182240Z 31007KT 25/M06 A299 RMK A01 T02511058  RH  013%=      5-min Rain = 0
KANS 182245Z 31006KT 25/M06 A299 RMK A01 T02501057  RH  013%=      5-min Rain = 0
KANS 182250Z 32005KT 25/M06 A299 RMK A01 T02481057  RH  013%=      5-min Rain = 0
KANS 182255Z 33006KT 25/M06 A299 RMK A01 T02471058  RH  013%=      5-min Rain = 0
KANS 182300Z 33005KT 25/M06 A299 RMK A01 T02451058  RH  013%=      5-min Rain = 0
KANS 182305Z 32005KT 24/M06 A2991 RMK A01 T02431059  RH  013%=      5-min Rain = 0
KANS 182310Z 32004KT 24/M06 A2991 RMK A01 T02411056  RH  014%=      5-min Rain = 0
KANS 182315Z 33004KT 24/M06 A2991 RMK A01 T02391055  RH  014%=      5-min Rain = 0
KANS 182320Z 33005KT 24/M06 A2991 RMK A01 T02351055  RH  014%=      5-min Rain = 0
KANS 182325Z 33005KT 23/M06 A2991 RMK A01 T02301055  RH  015%=      5-min Rain = 0
KANS 182330Z 34005KT 22/M05 A2991 RMK A01 T02241053  RH  015%=      5-min Rain = 0
KANS 182335Z 34005KT 22/M05 A2991 RMK A01 T02171051  RH  016%=      5-min Rain = 0
KANS 182340Z 34004KT 21/M05 A2991 RMK A01 T02111049  RH  017%=      5-min Rain = 0
KANS 182345Z 33004KT 21/M05 A2992 RMK A01 T02061048  RH  018%=      5-min Rain = 0
KANS 182350Z 32004KT 20/M05 A2992 RMK A01 T02021049  RH  018%=      5-min Rain = 0
KANS 182355Z 32004KT 20/M05 A2992 RMK A01 T01981048  RH  019%=      5-min Rain = 0
KANS 190000Z 32003KT 20/M05 A2992 RMK A01 T01951047  RH  019%=      5-min Rain = 0
KANS 190005Z 31003KT 19/M05 A2992 RMK A01 T01931045  RH  020%=      5-min Rain = 0
KANS 190010Z 31003KT 19/M04 A2992 RMK A01 T01911044  RH  020%=      5-min Rain = 0
KANS 190015Z 31003KT 19/M05 A2992 RMK A01 T01921045  RH  020%=      5-min Rain = 0
KANS 190020Z 32003KT 19/M04 A2992 RMK A01 T01911044  RH  020%=      5-min Rain = 0
KANS 190025Z 32003KT 19/M04 A2992 RMK A01 T01891044  RH  020%=      5-min Rain = 0
KANS 190030Z 32003KT 19/M04 A2992 RMK A01 T01881043  RH  021%=      5-min Rain = 0
KANS 190035Z 33002KT 19/M04 A2992 RMK A01 T01851041  RH  021%=      5-min Rain = 0
KANS 190040Z 33002KT 18/M04 A2992 RMK A01 T01791042  RH  022%=      5-min Rain = 0
KANS 190045Z 32001KT 17/M04 A2992 RMK A01 T01671042  RH  024%=      5-min Rain = 0
KANS 190050Z 32002KT 17/M04 A2992 RMK A01 T01651038  RH  025%=      5-min Rain = 0
KANS 190055Z 31001KT 17/M03 A2992 RMK A01 T01671029  RH  026%=      5-min Rain = 0
KANS 190100Z 27001KT 17/M03 A2992 RMK A01 T01661026  RH  027%=      5-min Rain = 0
KANS 190105Z 28001KT 16/M03 A2993 RMK A01 T01641025  RH  027%=      5-min Rain = 0
KANS 190110Z 29001KT 17/M03 A2993 RMK A01 T01651029  RH  027%=      5-min Rain = 0
KANS 190115Z 30001KT 17/M04 A2993 RMK A01 T01671037  RH  025%=      5-min Rain = 0
KANS 190120Z 28001KT 17/M04 A2993 RMK A01 T01681041  RH  024%=      5-min Rain = 0
KANS 190125Z 29001KT 17/M04 A2993 RMK A01 T01681043  RH  024%=      5-min Rain = 0
KANS 190130Z 30001KT 17/M04 A2993 RMK A01 T01671043  RH  024%=      5-min Rain = 0
KANS 190135Z 32002KT 16/M03 A2993 RMK A01 T01641030  RH  027%=      5-min Rain = 0
KANS 190140Z 33002KT 16/M02 A2994 RMK A01 T01561021  RH  030%=      5-min Rain = 0
KANS 190145Z 33002KT 15/M02 A2994 RMK A01 T01481018  RH  032%=      5-min Rain = 0
KANS 190150Z 31000KT 14/M02 A2994 RMK A01 T01421020  RH  033%=      5-min Rain = 0
KANS 190155Z 00000KT 14/M03 A2994 RMK A01 T01351029  RH  032%=      5-min Rain = 0
KANS 190200Z 35001KT 13/M03 A2995 RMK A01 T01321032  RH  032%=      5-min Rain = 0
KANS 190205Z 00002KT 13/M03 A2995 RMK A01 T01331031  RH  032%=      5-min Rain = 0
KANS 190210Z 01002KT 14/M03 A2995 RMK A01 T01371031  RH  031%=      5-min Rain = 0
KANS 190215Z 02003KT 14/M03 A2995 RMK A01 T01421030  RH  031%=      5-min Rain = 0
KANS 190220Z 02004KT 14/M03 A2995 RMK A01 T01441028  RH  031%=      5-min Rain = 0
KANS 190225Z 01002KT 14/M03 A2995 RMK A01 T01421026  RH  032%=      5-min Rain = 0
KANS 190230Z 36002KT 14/M03 A2996 RMK A01 T01361031  RH  032%=      5-min Rain = 0
KANS 190235Z 35002KT 13/M03 A2996 RMK A01 T01301032  RH  033%=      5-min Rain = 0
KANS 190240Z 00001KT 13/M03 A2996 RMK A01 T01281032  RH  033%=      5-min Rain = 0
KANS 190245Z 35000KT 13/M02 A2996 RMK A01 T01251022  RH  036%=      5-min Rain = 0
KANS 190250Z 21000KT 12/M00 A2997 RMK A01 T01201004  RH  043%=      5-min Rain = 0
KANS 190255Z 00000KT 12/01 A2997 RMK A01 T01180005  RH  046%=      5-min Rain = 0
KANS 190300Z 09000KT 12/M00 A2997 RMK A01 T01181001  RH  044%=      5-min Rain = 0
KANS 190305Z 14000KT 12/M00 A2997 RMK A01 T01151001  RH  045%=      5-min Rain = 0
KANS 190310Z 00000KT 11/00 A2997 RMK A01 T01140003  RH  047%=      5-min Rain = 0
KANS 190315Z 02001KT 11/00 A2998 RMK A01 T01130003  RH  047%=      5-min Rain = 0
KANS 190320Z 04002KT 11/M00 A2998 RMK A01 T01131002  RH  046%=      5-min Rain = 0
KANS 190325Z 04002KT 11/M00 A2998 RMK A01 T01101003  RH  046%=      5-min Rain = 0
KANS 190330Z 03003KT 11/M00 A2998 RMK A01 T01061004  RH  047%=      5-min Rain = 0
KANS 190335Z 03003KT 10/M01 A2998 RMK A01 T01031006  RH  047%=      5-min Rain = 0
KANS 190340Z 02003KT 10/M01 A2998 RMK A01 T01021011  RH  046%=      5-min Rain = 0
KANS 190345Z 02003KT 10/M01 A2998 RMK A01 T01031013  RH  045%=      5-min Rain = 0
KANS 190350Z 01003KT 10/M01 A2998 RMK A01 T01031012  RH  045%=      5-min Rain = 0
KANS 190355Z 00004KT 10/M01 A2998 RMK A01 T01011011  RH  046%=      5-min Rain = 0
KANS 190400Z 35005KT 10/M01 A2998 RMK A01 T00981010  RH  047%=      5-min Rain = 0
KANS 190405Z 35005KT 10/M01 A2998 RMK A01 T00961010  RH  048%=      5-min Rain = 0
KANS 190410Z 00006KT 10/M01 A2998 RMK A01 T00951012  RH  047%=      5-min Rain = 0
KANS 190415Z 00006KT 09/M01 A2998 RMK A01 T00941013  RH  048%=      5-min Rain = 0
KANS 190420Z 36006KT 09/M01 A2998 RMK A01 T00931013  RH  048%=      5-min Rain = 0
KANS 190425Z 35005KT 09/M01 A2998 RMK A01 T00941014  RH  047%=      5-min Rain = 0
KANS 190430Z 35005KT 10/M02 A2998 RMK A01 T00951015  RH  046%=      5-min Rain = 0
KANS 190435Z 35004KT 10/M02 A2998 RMK A01 T00971017  RH  045%=      5-min Rain = 0
KANS 190440Z 36004KT 10/M02 A2998 RMK A01 T00991018  RH  044%=      5-min Rain = 0
KANS 190445Z 36005KT 10/M02 A2998 RMK A01 T01001017  RH  044%=      5-min Rain = 0
KANS 190450Z 36005KT 10/M02 A2998 RMK A01 T00981016  RH  045%=      5-min Rain = 0
KANS 190455Z 35005KT 10/M02 A2998 RMK A01 T00981015  RH  046%=      5-min Rain = 0
KANS 190500Z 35004KT 10/M02 A2997 RMK A01 T00961015  RH  046%=      5-min Rain = 0
KANS 190505Z 35005KT 10/M02 A2998 RMK A01 T00951015  RH  047%=      5-min Rain = 0
KANS 190510Z 35005KT 09/M01 A2997 RMK A01 T00931013  RH  048%=      5-min Rain = 0
KANS 190515Z 34004KT 09/M01 A2998 RMK A01 T00921013  RH  048%=      5-min Rain = 0
KANS 190520Z 33004KT 09/M01 A2998 RMK A01 T00931014  RH  048%=      5-min Rain = 0
KANS 190525Z 33004KT 10/M01 A2998 RMK A01 T00961014  RH  047%=      5-min Rain = 0
KANS 190530Z 34005KT 10/M02 A2998 RMK A01 T01001015  RH  045%=      5-min Rain = 0
KANS 190535Z 35004KT 10/M02 A2998 RMK A01 T01031015  RH  044%=      5-min Rain = 0
KANS 190540Z 35004KT 10/M02 A2998 RMK A01 T01041015  RH  044%=      5-min Rain = 0
KANS 190545Z 34003KT 10/M02 A2998 RMK A01 T01041015  RH  044%=      5-min Rain = 0
KANS 190550Z 34003KT 10/M02 A2998 RMK A01 T01031017  RH  043%=      5-min Rain = 0
KANS 190555Z 34003KT 11/M02 A2998 RMK A01 T01051019  RH  042%=      5-min Rain = 0

Page generated in 0.0262 seconds.